Station 46011 (LLNR 215) - SANTA MARIA - 21NM NW of Point Arguello, CA Image indicating link to RSS feed of recent meteorological observations for station 46011


Conditions at 46011 as of
(2:40 pm PDT)
2140 GMT on 04/17/2024:
     

Click on the graph icon in the table below to see a time series plot of the last five days of that observation.

5-day plot - Wind Direction Wind Direction (WDIR):WNW ( 300 deg true )
5-day plot - Wind Speed Wind Speed (WSPD): 5.8 kts
5-day plot - Wind Gust Wind Gust (GST): 9.7 kts
5-day plot - Water Temperature Water Temperature (WTMP): 56.8 °F
5-day plot - Wind Speed at 10 Meters Wind Speed at 10 meters (WSPD10M): 7.8 kts
5-day plot - Wind Speed at 20 Meters Wind Speed at 20 meters (WSPD20M): 7.8 kts
5-day plot -  Wind Speed, Wind Gust and Atmospheric Pressure Combined plot of Wind Speed, Gust, and Air Pressure
Supplemental Measurements
Highest 1-minute Wind Speed
Time (PDT)5-day plot - 1-Minute Wind Speed WSPD 5-day plot - 1-Minute Wind Direction WDIR
2:32 pm 7.8 kts-
Previous observations
TIME
(PDT)
5-day plot - Wind Direction
WDIR
 
5-day plot - Wind Speed
WSPD
kts
5-day plot - Wind Gust
GST
kts
5-day plot - Wave Height
WVHT
ft
5-day plot - Dominant Wave Period
DPD
sec
5-day plot - Average Wave Period
APD
sec
5-day plot - Mean Wave Direction
MWD
 
5-day plot - Atmospheric Pressure
PRES
in
5-day plot - Pressure Tendency
PTDY
in
5-day plot - Air Temperature
ATMP
°F
5-day plot - Water Temperature
WTMP
°F
5-day plot - Dew Point
DEWP
°F
5-day plot - Salinity
SAL
psu
5-day plot - Visibility
VIS
nmi
5-day plot - Tide (above MLLW)
TIDE
ft
2024-04-17 02:30 pmWNW 7.8 9.7------- 56.7----
2024-04-17 02:20 pmWNW 7.8 9.7 6.2 107.5 NW--- 56.7----
2024-04-17 02:10 pmWNW 7.8 9.7 6.2-7.5 NW--- 56.5----
2024-04-17 02:00 pmWNW 7.8 9.7------- 56.7----
2024-04-17 01:50 pmWNW 7.8 9.7 6.2 177.5SSW--- 56.5----
2024-04-17 01:40 pmWNW 7.8 9.7------- 56.7----
2024-04-17 01:30 pm NW 5.8 7.8------- 55.9----
2024-04-17 01:20 pm NW 5.8 7.8 6.2 107.5 NW--- 56.3----
2024-04-17 01:10 pmWNW 5.8 7.8------- 56.3----
2024-04-17 01:00 pm NW 5.8 7.8------- 56.3----
2024-04-17 12:50 pm NW 5.8 7.8 6.2 177.3SSW--- 56.1----
2024-04-17 12:40 pm NW 5.8 7.8 6.2-7.3SSW--- 55.8----
2024-04-17 12:30 pm NW 5.8 7.8------- 55.8----
2024-04-17 12:20 pm NW 5.8 7.8 6.2 177.2SSW--- 55.6----
2024-04-17 12:10 pm NW 5.8 7.8------- 55.6----
2024-04-17 12:00 pmNNW 3.9 5.8------- 55.6----
2024-04-17 11:50 amNNW 3.9 5.8 6.2 177.1SSW--- 55.6----
2024-04-17 11:40 amNNW 3.9 5.8------- 55.4----
2024-04-17 11:30 amNNW 5.8 9.7------- 55.2----
2024-04-17 11:20 am NW 7.8 9.7 5.9 176.9SSW--- 55.0----
2024-04-17 11:10 am NW 9.7 11.7------- 55.0----
2024-04-17 11:00 amNNW 9.7 11.7------- 55.0----
2024-04-17 10:50 am NW 9.7 11.7 6.2 177.2SSW--- 55.0----
2024-04-17 10:40 am NW 9.7 11.7------- 55.0----
2024-04-17 10:30 am NW 9.7 11.7------- 55.0----
2024-04-17 10:20 am NW 9.7 13.6 6.6 177.1WSW--- 55.0----
2024-04-17 10:10 am NW 9.7 11.7------- 54.9----
2024-04-17 10:00 am NW 9.7 11.7------- 54.9----
2024-04-17 09:50 am NW 9.7 13.6 6.6 177.5SSW--- 54.9----
2024-04-17 09:40 am NW 11.7 13.6------- 54.9----
2024-04-17 09:30 am NW 9.7 13.6------- 54.9----
2024-04-17 09:20 am NW 11.7 13.6 6.2 177.1SSW--- 54.7----
2024-04-17 09:10 am NW 11.7 13.6 6.2-7.1SSW--- 54.7----
2024-04-17 09:00 am NW 9.7 13.6------- 54.7----
2024-04-17 08:50 amNNW 9.7 13.6 5.6 176.6SSW--- 54.7----
2024-04-17 08:40 amNNW 9.7 13.6 5.6-6.6SSW--- 54.7----
2024-04-17 08:30 amNNW 11.7 13.6------- 54.7----
2024-04-17 08:20 amNNW 11.7 13.6 5.2 176.6 SW--- 54.7----
2024-04-17 08:10 amNNW 11.7 15.5------- 54.7----
2024-04-17 08:00 amNNW 11.7 13.6------- 54.7----
2024-04-17 07:50 amNNW 11.7 13.6 5.9 177.1SSW--- 54.7----
2024-04-17 07:40 amNNW 11.7 15.5------- 54.7----
2024-04-17 07:30 amNNW 11.7 13.6------- 54.7----
2024-04-17 07:20 amNNW 11.7 13.6 5.9 177.2SSW--- 54.9----
2024-04-17 07:10 amNNW 11.7 13.6 5.9-7.2SSW--- 54.9----
2024-04-17 07:00 amNNW 11.7 13.6------- 54.9----
2024-04-17 06:50 amNNW 11.7 13.6 5.9 177.2SSW--- 54.9----
2024-04-17 06:40 amNNW 11.7 13.6------- 54.9----
2024-04-17 06:30 amNNW 11.7 13.6------- 54.9----
2024-04-17 06:20 amNNW 11.7 13.6 5.2 176.9SSW--- 54.9----
2024-04-17 06:10 amNNW 11.7 15.5------- 54.9----
2024-04-17 06:00 amNNW 11.7 13.6------- 54.9----
2024-04-17 05:50 amNNW 11.7 13.6 5.9 177.6SSW--- 54.9----
2024-04-17 05:40 amNNW 9.7 13.6------- 54.9----
2024-04-17 05:30 amNNW 9.7 13.6------- 54.9----
2024-04-17 05:20 amNNW 11.7 13.6 5.2 177.3 SW--- 54.9----
2024-04-17 05:10 amNNW 11.7 13.6 5.2-7.3 SW--- 54.9----
2024-04-17 05:00 amNNW 11.7 11.7------- 54.9----
2024-04-17 04:50 amNNW 9.7 11.7 5.2 177.3SSW--- 54.9----
2024-04-17 04:40 amNNW 11.7 13.6------- 54.7----
2024-04-17 04:30 amNNW 9.7 13.6------- 54.7----
2024-04-17 04:20 amNNW 9.7 11.7 5.2 177.3 SW--- 54.7----
2024-04-17 04:10 amNNW 9.7 11.7 5.2-7.3 SW--- 54.7----
2024-04-17 04:00 amNNW 9.7 11.7------- 54.7----
2024-04-17 03:50 amNNW 7.8 11.7 5.9 197.9SSW--- 54.5----
2024-04-17 03:40 amNNW 7.8 9.7------- 54.5----
2024-04-17 03:30 amNNW 7.8 11.7------- 54.5----
2024-04-17 03:20 amNNW 7.8 9.7 4.6 106.7 NW--- 54.5----
2024-04-17 03:10 amNNW 7.8 7.8 4.6-6.7 NW--- 54.5----
2024-04-17 03:00 amNNW 5.8 7.8------- 54.5----
2024-04-17 02:50 amNNW 7.8 9.7 5.2 177.3SSW--- 54.5----
2024-04-17 02:40 amNNW 7.8 11.7 5.2-7.3SSW--- 54.5----
2024-04-17 02:30 amNNW 9.7 11.7------- 54.5----
2024-04-17 02:20 amNNW 9.7 11.7 5.2 197.1SSW--- 54.5----
2024-04-17 02:10 am N 7.8 9.7 5.2-7.1SSW--- 54.5----
2024-04-17 02:00 am N 7.8 9.7------- 54.5----
2024-04-17 01:50 am N 7.8 9.7 5.2 176.8 S--- 54.5----
2024-04-17 01:40 am N 7.8 9.7 5.2-6.8 S--- 54.5----
2024-04-17 01:30 am N 7.8 9.7------- 54.5----
2024-04-17 01:20 am N 7.8 9.7 5.9 96.8 NW--- 54.5----
2024-04-17 01:10 am N 9.7 11.7------- 54.5----
2024-04-17 01:00 am N 7.8 9.7------- 54.5----
2024-04-17 12:50 am N 7.8 9.7 5.9 107.2 NW--- 54.5----
2024-04-17 12:40 am N 7.8 9.7------- 54.5----
2024-04-17 12:30 am N 7.8 9.7------- 54.5----
2024-04-17 12:20 am N 7.8 11.7 5.9 106.9 NW--- 54.5----
2024-04-17 12:10 am N 7.8 9.7 5.9-6.9 NW--- 54.5----
2024-04-17 12:00 am N 9.7 11.7------- 54.7----
2024-04-16 11:50 pm N 9.7 13.6 6.2 97.0 NW--- 54.7----
2024-04-16 11:40 pmNNW 11.7 15.5------- 54.7----
2024-04-16 11:30 pmNNW 13.6 15.5------- 54.7----
2024-04-16 11:20 pmNNW 13.6 15.5 5.9 106.7 NW--- 54.7----
2024-04-16 11:10 pmNNW 13.6 15.5 5.9-6.7 NW--- 54.7----
2024-04-16 11:00 pmNNW 13.6 15.5------- 54.9----
2024-04-16 10:50 pmNNW 13.6 15.5 5.9 106.9 NW--- 54.9----
2024-04-16 10:40 pmNNW 13.6 15.5------- 55.0----
2024-04-16 10:30 pmNNW 13.6 15.5------- 55.0----
2024-04-16 10:20 pmNNW 13.6 15.5 5.6 106.7 NW--- 55.0----
2024-04-16 10:10 pmNNW 13.6 17.5 5.6-6.7 NW--- 54.9----
2024-04-16 10:00 pmNNW 13.6 17.5------- 55.0----
2024-04-16 09:50 pmNNW 13.6 17.5 5.6 106.6 NW--- 55.0----
2024-04-16 09:40 pmNNW 13.6 17.5------- 55.0----
2024-04-16 09:30 pmNNW 13.6 15.5------- 55.0----
2024-04-16 09:20 pmNNW 13.6 15.5 5.9 106.6 NW--- 55.0----
2024-04-16 09:10 pmNNW 13.6 15.5------- 55.0----
2024-04-16 09:00 pmNNW 11.7 15.5------- 55.2----
2024-04-16 08:50 pmNNW 13.6 15.5 5.6 176.3 SW--- 55.2----
2024-04-16 08:40 pmNNW 13.6 17.5------- 55.2----
2024-04-16 08:30 pmNNW 13.6 17.5------- 55.2----
2024-04-16 08:20 pmNNW 15.5 17.5 5.9 106.3 NW--- 55.2----
2024-04-16 08:10 pmNNW 13.6 17.5------- 55.2----
2024-04-16 08:00 pmNNW 15.5 17.5------- 55.2----
2024-04-16 07:50 pmNNW 15.5 19.4 6.2 116.2 NW--- 55.2----
2024-04-16 07:40 pmNNW 17.5 21.4------- 55.2----
2024-04-16 07:30 pmNNW 15.5 21.4------- 55.2----
2024-04-16 07:20 pm NW 15.5 17.5 5.6 115.8 NW--- 55.4----
2024-04-16 07:10 pmNNW 15.5 19.4------- 55.4----
2024-04-16 07:00 pm NW 13.6 17.5------- 55.4----
2024-04-16 06:50 pm NW 13.6 17.5 6.2 116.1WNW--- 55.4----
2024-04-16 06:40 pm NW 13.6 15.5------- 55.4----
2024-04-16 06:30 pm NW 13.6 17.5------- 55.4----
2024-04-16 06:20 pmNNW 13.6 17.5 6.2 115.9 NW--- 55.4----
2024-04-16 06:10 pmNNW 13.6 17.5 6.2-5.9 NW--- 55.4----
2024-04-16 06:00 pmNNW 13.6 17.5------- 55.4----
2024-04-16 05:50 pmNNW 13.6 17.5 5.9 115.5 NW--- 55.2----
2024-04-16 05:40 pmNNW 15.5 19.4------- 55.2----
2024-04-16 05:30 pmNNW 15.5 19.4------- 55.0----
2024-04-16 05:20 pmNNW 15.5 19.4 5.9 115.6 NW--- 55.0----
2024-04-16 05:10 pmNNW 15.5 19.4 5.9-5.6 NW--- 55.0----
2024-04-16 05:00 pmNNW 15.5 19.4------- 55.0----
2024-04-16 04:50 pmNNW 15.5 19.4 6.6 115.6 NW--- 55.0----
2024-04-16 04:40 pmNNW 15.5 19.4------- 55.2----
2024-04-16 04:30 pmNNW 15.5 19.4------- 55.2----
2024-04-16 04:20 pmNNW 15.5 19.4 6.6 115.6 NW--- 55.2----
2024-04-16 04:10 pmNNW 17.5 21.4 6.6-5.6 NW--- 55.2----
2024-04-16 04:00 pmNNW 17.5 23.3------- 55.0----
2024-04-16 03:50 pmNNW 19.4 23.3 6.2 115.5 NW--- 55.0----
2024-04-16 03:40 pmNNW 19.4 23.3------- 55.0----
2024-04-16 03:30 pmNNW 21.4 25.3------- 55.0----
2024-04-16 03:20 pmNNW 21.4 25.3 6.2 115.7 NW--- 55.0----
2024-04-16 03:10 pm NW 21.4 25.3------- 55.0----
2024-04-16 03:00 pm NW 19.4 25.3------- 55.2----
2024-04-16 02:50 pm NW 19.4 23.3 5.9 95.6 NW--- 55.0----

Detailed Wave Summary
for 46011 as of (2:10 pm PDT)
2110 GMT on 04/17/2024:

These wave data are displayed in rounded times.

     

Click on the graph icon in the table below to see a time series plot of the last five days of that observation.

5-day plot - Significant Wave Height Significant Wave Height (WVHT): 6.2 ft
5-day plot - Swell Height Swell Height (SwH): 5.9 ft
5-day plot - Swell Period Swell Period (SwP): 10.0 sec
5-day plot - Swell Direction Swell Direction (SwD): NW
5-day plot - Wind Wave Height Wind Wave Height (WWH): 1.3 ft
5-day plot - Wind Wave Period Wind Wave Period (WWP): 3.4 sec
5-day plot - Wind Wave Direction Wind Wave Direction (WWD):WNW
5-day plot - Wave Steepness Wave Steepness (STEEPNESS): SWELL
5-day plot - Average Wave Period Average Wave Period (APD): 7.5 sec
Previous observations
TIME
(PDT)
5-day plot - Wave Height
WVHT
ft
5-day plot - Swell Height
SwH
ft
5-day plot - Swell Period
SwP
sec
5-day plot - Swell Direction
SwD
 
5-day plot - Wind Wave Height
WWH
ft
5-day plot - Wind Wave Period
WWP
sec
5-day plot - Wind Wave Direction
WWD
 
5-day plot - Wave Steepness
STEEPNESS
 
5-day plot - Average Wave Period
APD
sec
2024-04-17 01:40 pm 6.2 6.2 17.4SSW 1.6 3.8 NW SWELL 7.5
2024-04-17 01:10 pm 6.2 6.2 10.0 NW 1.3 3.4 NW SWELL 7.5
2024-04-17 12:40 pm 6.2 5.9 17.4SSW 1.6 3.7 NW SWELL 7.3
2024-04-17 12:10 pm 6.2 6.2 17.4SSW 1.6 3.6 NW SWELL 7.2
2024-04-17 11:40 am 6.2 5.9 17.4SSW 1.6 3.8 NW SWELL 7.1
2024-04-17 11:10 am 5.9 5.6 17.4SSW 2.0 4.3 NW SWELL 6.9
2024-04-17 10:40 am 6.2 5.9 17.4SSW 2.0 3.8 NW SWELL 7.2
2024-04-17 10:10 am 6.6 6.2 17.4WSW 2.0 3.8 NW SWELL 7.1
2024-04-17 09:40 am 6.6 6.2 17.4SSW 2.3 4.3 NW SWELL 7.5
2024-04-17 09:10 am 6.2 5.9 17.4SSW 2.3 5.3 NW SWELL 7.1
2024-04-17 08:40 am 5.6 4.9 17.4SSW 2.0 4.8 NW SWELL 6.6
2024-04-17 08:10 am 5.2 4.6 17.4 SW 2.6 5.6 NW SWELL 6.6
2024-04-17 07:40 am 5.9 5.2 17.4SSW 2.6 5.6 NW SWELL 7.1
2024-04-17 07:10 am 5.9 5.2 17.4SSW 2.3 5.0 NW SWELL 7.2
2024-04-17 06:40 am 5.9 5.6 17.4SSW 2.3 4.3 NW SWELL 7.2
2024-04-17 06:10 am 5.2 4.9 17.4SSW 2.6 5.6 NW SWELL 6.9
2024-04-17 05:40 am 5.9 5.6 17.4SSW 2.0 4.5 NW SWELL 7.6
2024-04-17 05:10 am 5.2 4.9 17.4 SW 2.0 5.0 NW SWELL 7.3
2024-04-17 04:40 am 5.2 4.9 17.4SSW 2.0 4.8 NW SWELL 7.3
2024-04-17 04:10 am 5.2 4.9 17.4 SW 1.6 4.2 NW SWELL 7.3
2024-04-17 03:40 am 5.9 5.6 19.0SSW 1.3 3.8 NW SWELL 7.9
2024-04-17 03:10 am 4.6 4.6 10.0 NW 1.3 3.7 NW SWELL 6.7
2024-04-17 02:40 am 5.2 5.2 17.4SSW 1.3 3.2 WNW SWELL 7.3
2024-04-17 02:10 am 5.2 4.9 19.0SSW 1.3 4.0 NW SWELL 7.1
2024-04-17 01:40 am 5.2 4.9 17.4 S 1.6 3.6 WNW SWELL 6.8
2024-04-17 01:10 am 5.9 5.6 9.1 NW 1.6 3.7 NW AVERAGE 6.8
2024-04-17 12:40 am 5.9 5.9 10.0 NW 1.6 4.0 NW SWELL 7.2
2024-04-17 12:10 am 5.9 5.6 10.0 NW 1.6 4.0 NW SWELL 6.9
2024-04-16 11:40 pm 6.2 5.9 9.1 NW 2.3 5.0 NW AVERAGE 7.0
2024-04-16 11:10 pm 5.9 5.2 10.0 NW 3.0 5.9 NW SWELL 6.7
2024-04-16 10:40 pm 5.9 5.2 10.0 NW 2.6 5.9 NW SWELL 6.9
2024-04-16 10:10 pm 5.6 4.9 10.0 NW 2.6 5.0 WNW SWELL 6.7
2024-04-16 09:40 pm 5.6 4.9 10.0 NW 2.6 5.6 WNW SWELL 6.6
2024-04-16 09:10 pm 5.9 5.2 10.0 NW 3.0 5.6 NW SWELL 6.6
2024-04-16 08:40 pm 5.6 4.6 17.4 SW 3.0 5.6 NW SWELL 6.3
2024-04-16 08:10 pm 5.9 5.2 10.0 NW 3.0 5.9 NW SWELL 6.3
2024-04-16 07:40 pm 6.2 4.9 11.4 NW 3.9 5.3 NW SWELL 6.2
2024-04-16 07:10 pm 5.6 4.3 11.4 NW 3.6 5.3 NW SWELL 5.8
2024-04-16 06:40 pm 6.2 4.9 11.4WNW 3.6 5.6 NW SWELL 6.1
2024-04-16 06:10 pm 6.2 4.9 11.4 NW 3.6 5.3 NW SWELL 5.9
2024-04-16 05:40 pm 5.9 4.3 10.8 NW 3.9 5.6 NW SWELL 5.5
2024-04-16 05:10 pm 5.9 4.3 11.4 NW 3.9 5.0 NW SWELL 5.6
2024-04-16 04:40 pm 6.6 4.3 11.4 NW 4.9 5.6 NW AVERAGE 5.6
2024-04-16 04:10 pm 6.6 4.6 10.8 NW 4.6 5.6 NW SWELL 5.6
2024-04-16 03:40 pm 6.2 4.6 11.4 NW 4.3 5.9 NW SWELL 5.5
2024-04-16 03:10 pm 6.2 4.9 10.8 NW 3.9 6.2 NW SWELL 5.7

Plot of wave energy versus frequency (and period)